Atmospheric History
02/08/2018 19:42  to  2/9/2018 19:42
Change End Date:
To complete the export process:
1) Select all of the data below
2) Copy the data to the clipboard
3) Open a word processor such as Notepad
4) Paste the data into the word processor
5) Save the file

Date/Time (MDT), AirTemp, RH, Dewpoint ,AvgWindSpeed, GustWindSpeed, WindDirection, PrecipType, PrecipIntensity, PrecipAccumulation, PrecipRate
02/09/2018 19:40, 3, 88, 0 ,9, 11, NE, None, None, ,  
02/09/2018 19:35, 3, 89, 1 ,9, 11, NE, None, None, ,  
02/09/2018 19:25, 3, 87, 0 ,9, 10, N, None, None, ,  
02/09/2018 19:25, 3, 87, 0 ,9, 10, N, None, None, ,  
02/09/2018 19:15, 3, 88, 1 ,9, 11, NE, None, None, ,  
02/09/2018 19:10, 3, 87, 1 ,10, 11, NE, None, None, ,  
02/09/2018 19:05, 4, 87, 1 ,9, 10, N, None, None, ,  
02/09/2018 18:55, 4, 88, 2 ,7, 9, N, None, None, ,  
02/09/2018 18:55, 4, 88, 2 ,7, 9, N, None, None, ,  
02/09/2018 18:45, 4, 88, 2 ,7, 11, NE, None, None, ,  
02/09/2018 18:40, 5, 88, 2 ,7, 11, NE, None, None, ,  
02/09/2018 18:35, 4, 88, 2 ,9, 11, NE, None, None, ,  
02/09/2018 18:25, 5, 88, 2 ,9, 11, N, None, None, ,  
02/09/2018 18:25, 5, 88, 2 ,9, 11, N, None, None, ,  
02/09/2018 18:15, 5, 88, 2 ,9, 12, N, None, None, ,  
02/09/2018 18:10, 6, 89, 3 ,10, 12, N, None, None, ,  
02/09/2018 18:05, 6, 89, 4 ,10, 11, NE, None, None, ,  
02/09/2018 17:55, 6, 89, 3 ,9, 10, N, None, None, ,  
02/09/2018 17:55, 6, 89, 3 ,9, 10, N, None, None, ,  
02/09/2018 17:45, 6, 89, 4 ,8, 10, N, None, None, ,  
02/09/2018 17:40, 7, 89, 4 ,8, 12, N, None, None, ,  
02/09/2018 17:35, 7, 89, 4 ,10, 12, N, None, None, ,  
02/09/2018 17:25, 7, 87, 4 ,11, 12, N, None, None, ,  
02/09/2018 17:25, 7, 87, 4 ,10, 12, N, None, None, ,  
02/09/2018 17:15, 8, 88, 5 ,9, 9, N, None, None, ,  
02/09/2018 17:10, 8, 87, 5 ,8, 9, N, None, None, ,  
02/09/2018 17:05, 8, 87, 5 ,8, 9, N, None, None, ,  
02/09/2018 16:55, 9, 86, 5 ,6, 7, N, None, None, ,  
02/09/2018 16:55, 9, 86, 5 ,6, 7, N, None, None, ,  
02/09/2018 16:45, 11, 89, 8 ,7, 12, N, None, None, ,  
02/09/2018 16:40, 10, 88, 7 ,7, 12, N, None, None, ,  
02/09/2018 16:34, 9, 87, 6 ,9, 10, NE, None, None, ,  
02/09/2018 16:25, 10, 86, 6 ,5, 6, N, None, None, ,  
02/09/2018 16:24, 10, 86, 7 ,5, 6, N, None, None, ,  
02/09/2018 16:14, 10, 85, 7 ,5, 7, N, None, None, ,  
02/09/2018 16:10, 11, 87, 8 ,6, 7, NW, None, None, ,  
02/09/2018 16:04, 11, 86, 7 ,7, 9, N, None, None, ,  
02/09/2018 15:55, 10, 87, 7 ,9, 10, N, None, None, ,  
02/09/2018 15:54, 10, 87, 7 ,9, 10, N, None, None, ,  
02/09/2018 15:44, 9, 86, 6 ,7, 9, N, None, None, ,  
02/09/2018 15:40, 10, 86, 6 ,8, 11, N, None, None, ,  
02/09/2018 15:34, 10, 85, 7 ,10, 11, N, None, None, ,  
02/09/2018 15:25, 10, 88, 8 ,6, 7, N, None, None, ,  
02/09/2018 15:24, 10, 87, 7 ,6, 7, N, None, None, ,  
02/09/2018 15:14, 9, 87, 6 ,7, 10, N, None, None, ,  
02/09/2018 15:10, 9, 87, 6 ,8, 10, N, None, None, ,  
02/09/2018 15:04, 8, 87, 5 ,9, 10, N, None, None, ,  
02/09/2018 14:55, 7, 87, 4 ,6, 7, N, None, None, ,  
02/09/2018 14:54, 7, 87, 4 ,5, 7, N, None, None, ,  
02/09/2018 14:44, 7, 87, 4 ,7, 11, N, None, None, ,  
02/09/2018 14:40, 8, 88, 5 ,9, 14, NE, None, None, ,  
02/09/2018 14:34, 8, 88, 5 ,12, 16, N, None, None, ,  
02/09/2018 14:25, 7, 88, 4 ,13, 16, NE, None, None, ,  
02/09/2018 14:24, 7, 88, 4 ,12, 16, N, None, None, ,  
02/09/2018 14:14, 9, 87, 6 ,12, 15, N, None, None, ,  
02/09/2018 14:10, 10, 88, 7 ,13, 15, N, None, None, ,  
02/09/2018 14:04, 11, 89, 8 ,13, 16, N, None, None, ,  
02/09/2018 13:55, 12, 89, 9 ,12, 15, N, None, None, ,  
02/09/2018 13:54, 12, 89, 9 ,14, 15, N, None, None, ,  
02/09/2018 13:44, 13, 89, 11 ,12, 14, N, None, None, ,  
02/09/2018 13:40, 13, 89, 11 ,13, 14, N, None, None, ,  
02/09/2018 13:33, 14, 88, 11 ,10, 11, N, None, None, ,  
02/09/2018 13:25, 16, 94, 14 ,7, 9, N, None, None, ,  
02/09/2018 13:23, 15, 93, 13 ,6, 7, N, None, None, ,  
02/09/2018 13:13, 12, 90, 10 ,4, 7, N, None, None, ,  
02/09/2018 13:10, 12, 90, 10 ,4, 7, N, None, None, ,  
02/09/2018 13:03, 13, 90, 10 ,6, 9, N, None, None, ,  
02/09/2018 12:55, 12, 90, 10 ,6, 9, N, None, None, ,  
02/09/2018 12:53, 12, 90, 10 ,6, 9, N, None, None, ,  
02/09/2018 12:43, 11, 89, 8 ,6, 8, N, None, None, ,  
02/09/2018 12:40, 11, 88, 8 ,6, 8, N, None, None, ,  
02/09/2018 12:33, 11, 89, 9 ,7, 7, N, None, None, ,  
02/09/2018 12:25, 10, 89, 8 ,6, 7, N, None, None, ,  
02/09/2018 12:23, 10, 89, 7 ,6, 7, N, None, None, ,  
02/09/2018 12:13, 11, 89, 8 ,6, 9, N, None, None, ,  
02/09/2018 12:10, 11, 90, 9 ,6, 11, NW, None, None, ,  
02/09/2018 12:03, 12, 91, 10 ,9, 11, NW, None, None, ,  
02/09/2018 11:55, 11, 88, 8 ,7, 9, N, None, None, ,  
02/09/2018 11:53, 11, 88, 9 ,7, 10, NW, None, None, ,  
02/09/2018 11:43, 13, 92, 11 ,9, 11, N, None, None, ,  
02/09/2018 11:40, 11, 90, 9 ,9, 10, N, None, None, ,  
02/09/2018 11:33, 10, 89, 7 ,9, 9, N, None, None, ,  
02/09/2018 11:25, 9, 88, 6 ,9, 9, N, None, None, ,  
02/09/2018 11:23, 9, 88, 6 ,9, 9, N, None, None, ,  
02/09/2018 11:13, 8, 88, 5 ,7, 9, N, None, None, ,  
02/09/2018 11:10, 7, 87, 4 ,6, 7, N, None, None, ,  
02/09/2018 11:03, 8, 87, 5 ,5, 6, NW, None, None, ,  
02/09/2018 10:55, 10, 90, 7 ,2, 5, NW, None, None, ,  
02/09/2018 10:52, 9, 89, 6 ,3, 5, NW, None, None, ,  
02/09/2018 10:42, 8, 90, 6 ,1, 6, N, None, None, ,  
02/09/2018 10:40, 7, 89, 4 ,2, 6, E, None, None, ,  
02/09/2018 10:32, 5, 87, 2 ,2, 7, NE, None, None, ,  
02/09/2018 10:25, 5, 86, 2 ,6, 9, N, None, None, ,  
02/09/2018 10:22, 6, 86, 2 ,7, 9, N, None, None, ,  
02/09/2018 10:12, 5, 87, 2 ,6, 7, N, None, None, ,  
02/09/2018 10:10, 5, 87, 2 ,5, 6, NE, None, None, ,  
02/09/2018 10:02, 5, 87, 2 ,4, 5, N, None, None, ,  
02/09/2018 09:55, 4, 87, 1 ,4, 10, N, None, None, ,  
02/09/2018 09:52, 4, 87, 1 ,6, 12, N, None, None, ,  
02/09/2018 09:42, 4, 86, 1 ,11, 14, N, None, None, ,  
02/09/2018 09:40, 4, 86, 0 ,13, 16, N, None, None, ,  
02/09/2018 09:32, 3, 86, 0 ,13, 16, N, None, None, ,  
02/09/2018 09:25, 3, 86, 0 ,15, 16, N, None, None, ,  
02/09/2018 09:22, 3, 86, 0 ,15, 16, N, None, None, ,  
02/09/2018 09:12, 2, 86, -1 ,8, 12, N, None, None, ,  
02/09/2018 09:10, 2, 86, -1 ,8, 13, N, None, None, ,  
02/09/2018 09:02, 1, 86, -2 ,12, 13, N, None, None, ,  
02/09/2018 08:55, 1, 85, -3 ,12, 12, N, None, None, ,  
02/09/2018 08:52, 1, 85, -2 ,12, 12, N, None, None, ,  
02/09/2018 08:42, 1, 86, -2 ,7, 10, N, None, None, ,  
02/09/2018 08:40, 2, 86, -1 ,7, 11, N, None, None, ,  
02/09/2018 08:32, 2, 86, -1 ,10, 12, NE, None, None, ,  
02/09/2018 08:25, 2, 86, -1 ,9, 13, N, None, None, ,  
02/09/2018 08:22, 2, 86, -1 ,11, 13, NE, None, None, ,  
02/09/2018 08:12, 2, 86, -1 ,9, 14, N, None, None, ,  
02/09/2018 08:10, 2, 86, -1 ,10, 14, N, None, None, ,  
02/09/2018 08:02, 1, 86, -2 ,12, 14, N, None, None, ,  
02/09/2018 07:55, 1, 85, -2 ,11, 13, NE, None, None, ,  
02/09/2018 07:52, 2, 86, -2 ,7, 14, N, None, None, ,  
02/09/2018 07:41, 2, 87, -1 ,11, 12, N, None, None, ,  
02/09/2018 07:40, 2, 86, -1 ,11, 12, NE, None, None, ,  
02/09/2018 07:31, 3, 86, 0 ,9, 11, N, None, None, ,  
02/09/2018 07:25, 4, 87, 1 ,9, 11, NE, None, None, ,  
02/09/2018 07:21, 4, 87, 1 ,6, 12, N, None, None, ,  
02/09/2018 07:11, 5, 87, 2 ,10, 16, N, Yes, , ,  
02/09/2018 07:10, 5, 88, 2 ,12, 16, N, Yes, , ,  
02/09/2018 07:01, 5, 88, 2 ,13, 16, N, None, None, ,  
02/09/2018 06:51, 5, 87, 2 ,11, 12, N, None, None, ,  
02/09/2018 06:41, 6, 88, 3 ,10, 11, N, None, None, ,  
02/09/2018 06:40, 6, 88, 3 ,10, 11, N, None, None, ,  
02/09/2018 06:31, 6, 88, 3 ,6, 6, N, None, None, ,  
02/09/2018 06:25, 6, 88, 3 ,5, 11, N, None, None, ,  
02/09/2018 06:21, 6, 88, 3 ,7, 11, N, None, None, ,  
02/09/2018 06:11, 7, 89, 4 ,9, 14, N, None, None, ,  
02/09/2018 06:10, 7, 89, 4 ,9, 14, N, None, None, ,  
02/09/2018 06:01, 7, 89, 4 ,12, 14, N, None, None, ,  
02/09/2018 05:55, 7, 89, 4 ,11, 13, N, None, None, ,  
02/09/2018 05:51, 7, 89, 4 ,11, 13, N, None, None, ,  
02/09/2018 05:41, 8, 89, 5 ,11, 16, N, None, None, ,  
02/09/2018 05:40, 8, 89, 5 ,11, 16, N, None, None, ,  
02/09/2018 05:31, 8, 89, 6 ,14, 15, N, None, None, ,  
02/09/2018 05:25, 9, 90, 6 ,12, 15, N, None, None, ,  
02/09/2018 05:21, 9, 90, 6 ,12, 16, N, None, None, ,  
02/09/2018 05:11, 9, 90, 7 ,14, 17, N, None, None, ,  
02/09/2018 05:10, 9, 90, 7 ,14, 17, N, None, None, ,  
02/09/2018 05:01, 10, 90, 7 ,14, 16, N, None, None, ,  
02/09/2018 04:55, 10, 90, 8 ,12, 16, NE, None, None, ,  
02/09/2018 04:50, 10, 91, 8 ,12, 17, N, None, None, ,  
02/09/2018 04:40, 11, 91, 9 ,13, 16, N, None, None, ,  
02/09/2018 04:40, 11, 91, 9 ,13, 16, N, None, None, ,  
02/09/2018 04:30, 11, 91, 9 ,11, 16, NE, None, None, ,  
02/09/2018 04:25, 12, 91, 10 ,11, 15, N, None, None, ,  
02/09/2018 04:20, 14, 92, 12 ,12, 15, N, None, None, ,  
02/09/2018 04:10, 17, 93, 15 ,11, 17, NE, None, None, ,  
02/09/2018 04:10, 17, 93, 15 ,11, 17, NE, None, None, ,  
02/09/2018 04:00, 25, , 26 ,15, 17, S, None, None, ,  
02/09/2018 03:55, 25, , 26 ,16, 18, SE, None, None, ,  
02/09/2018 03:50, 25, , 26 ,16, 18, SE, None, None, ,  
02/09/2018 03:40, 25, , 26 ,14, 17, SE, None, None, ,  
02/09/2018 03:40, 25, , 26 ,14, 17, SE, None, None, ,  
02/09/2018 03:30, 25, , 26 ,15, 19, S, None, None, ,  
02/09/2018 03:25, 25, , 26 ,14, 19, SE, None, None, ,  
02/09/2018 03:20, 25, , 26 ,14, 21, S, None, None, ,  
02/09/2018 03:10, 25, , 26 ,14, 18, S, None, None, ,  
02/09/2018 03:10, 25, , 26 ,14, 18, S, None, None, ,  
02/09/2018 03:00, 25, , 25 ,16, 17, S, None, None, ,  
02/09/2018 02:55, 25, , 26 ,14, 16, S, None, None, ,  
02/09/2018 02:50, 25, 100, 25 ,11, 19, SE, None, None, ,  
02/09/2018 02:40, 26, 100, 26 ,15, 20, SE, None, None, ,  
02/09/2018 02:40, 26, 100, 26 ,15, 20, SE, None, None, ,  
02/09/2018 02:30, 26, , 27 ,16, 22, SE, None, None, ,  
02/09/2018 02:25, 26, , 27 ,16, 19, SE, None, None, ,  
02/09/2018 02:20, 26, , 27 ,18, 19, SE, None, None, ,  
02/09/2018 02:10, 26, , 27 ,18, 20, SE, None, None, ,  
02/09/2018 02:10, 26, , 27 ,18, 20, SE, None, None, ,  
02/09/2018 02:00, 26, , 27 ,16, 17, S, None, None, ,  
02/09/2018 01:55, 26, , 28 ,13, 17, SE, None, None, ,  
02/09/2018 01:50, 27, , 28 ,12, 16, SE, None, None, ,  
02/09/2018 01:40, 26, , 28 ,15, 17, S, None, None, ,  
02/09/2018 01:39, 26, , 28 ,14, 17, S, None, None, ,  
02/09/2018 01:29, 26, , 27 ,16, 17, SE, None, None, ,  
02/09/2018 01:25, 26, , 28 ,15, 16, SE, None, None, ,  
02/09/2018 01:19, 26, , 28 ,13, 16, SE, None, None, ,  
02/09/2018 01:10, 26, , 27 ,15, 18, SE, None, None, ,  
02/09/2018 01:09, 26, , 27 ,15, 18, SE, None, None, ,  
02/09/2018 00:59, 26, , 28 ,16, 18, SE, None, None, ,  
02/09/2018 00:55, 26, , 28 ,15, 18, SE, None, None, ,  
02/09/2018 00:49, 26, , 28 ,16, 17, SE, None, None, ,  
02/09/2018 00:40, 26, , 28 ,12, 15, SE, None, None, ,  
02/09/2018 00:39, 26, , 28 ,12, 15, S, None, None, ,  
02/09/2018 00:29, 26, , 28 ,14, 16, SE, None, None, ,  
02/09/2018 00:25, 26, , 28 ,9, 15, S, None, None, ,  
02/09/2018 00:19, 26, , 28 ,12, 16, SE, None, None, ,  
02/09/2018 00:10, 26, , 28 ,13, 16, SE, None, None, ,  
02/09/2018 00:09, 26, , 28 ,15, 16, SE, None, None, ,  
02/08/2018 23:59, 26, 100, 27 ,16, 19, SE, None, None, ,  
02/08/2018 23:55, 27, 98, 26 ,14, 19, SE, None, None, ,  
02/08/2018 23:49, 26, , 28 ,13, 17, SE, None, None, ,  
02/08/2018 23:40, 26, , 27 ,14, 17, S, None, None, ,  
02/08/2018 23:39, 26, , 27 ,13, 20, S, None, None, ,  
02/08/2018 23:29, 27, , 28 ,16, 19, SE, None, None, ,  
02/08/2018 23:25, 26, , 28 ,17, 19, SE, None, None, ,  
02/08/2018 23:19, 26, , 27 ,17, 19, S, None, None, ,  
02/08/2018 23:10, 26, , 27 ,17, 19, SE, None, None, ,  
02/08/2018 23:09, 25, , 26 ,17, 19, SE, None, None, ,  
02/08/2018 22:59, 25, 97, 25 ,11, 15, SE, None, None, ,  
02/08/2018 22:55, 26, 95, 24 ,11, 15, S, None, None, ,  
02/08/2018 22:49, 27, 99, 27 ,13, 15, SE, None, None, ,  
02/08/2018 22:40, 25, 99, 25 ,7, 12, SW, None, None, ,  
02/08/2018 22:38, 25, 100, 25 ,9, 12, S, None, None, ,  
02/08/2018 22:28, 25, 97, 24 ,8, 12, SW, None, None, ,  
02/08/2018 22:25, 26, 97, 25 ,9, 13, SE, None, None, ,  
02/08/2018 22:18, 25, 94, 24 ,9, 14, S, None, None, ,  
02/08/2018 22:10, 26, , 27 ,9, 11, SW, None, None, ,  
02/08/2018 22:08, 25, 100, 25 ,9, 11, SW, None, None, ,  
02/08/2018 21:58, 23, 97, 22 ,9, 14, S, None, None, ,  
02/08/2018 21:55, 25, 99, 25 ,10, 14, SW, None, None, ,  
02/08/2018 21:48, 24, 100, 24 ,7, 12, SW, None, None, ,  
02/08/2018 21:40, 25, 99, 25 ,11, 13, SW, None, None, ,  
02/08/2018 21:38, 25, 97, 25 ,7, 13, SW, None, None, ,  
02/08/2018 21:28, 24, 96, 23 ,11, 12, SE, None, None, ,  
02/08/2018 21:25, 25, 99, 25 ,6, 12, S, None, None, ,  
02/08/2018 21:18, 24, 100, 25 ,9, 12, SE, None, None, ,  
02/08/2018 21:10, 25, 93, 23 ,9, 14, S, None, None, ,  
02/08/2018 21:08, 26, 90, 24 ,8, 14, S, None, None, ,  
02/08/2018 20:58, 26, 92, 24 ,6, 10, SW, None, None, ,  
02/08/2018 20:55, 28, 94, 26 ,7, 14, SW, None, None, ,  
02/08/2018 20:48, 27, 96, 26 ,12, 14, S, None, None, ,  
02/08/2018 20:40, 28, 91, 26 ,9, 16, S, None, None, ,  
02/08/2018 20:38, 29, 90, 26 ,11, 16, S, None, None, ,  
02/08/2018 20:28, 30, 92, 28 ,17, 21, SE, None, None, ,  
02/08/2018 20:25, 30, 90, 27 ,16, 21, S, None, None, ,  
02/08/2018 20:18, 29, 93, 27 ,17, 23, SE, None, None, ,  
02/08/2018 20:10, 29, 91, 27 ,20, 23, SE, None, None, ,  
02/08/2018 20:08, 30, 93, 28 ,20, 24, SE, None, None, ,  
02/08/2018 19:58, 29, 94, 28 ,19, 25, S, None, None, ,  
02/08/2018 19:55, 29, 91, 27 ,17, 25, SE, None, None, ,  
02/08/2018 19:48, 29, 92, 28 ,21, 23, SE, None, None, ,  
Change End Date:

Copyright © 1998-2015 Vaisala, Inc.
All Rights Reserved
Send comments about the data to:
SCAN Web ® is a registered trademark of Vaisala, Inc.
SCAN Web Version 6.0